Flight Track Log - Related Links

Times and Time Zones

All times are in EDT time to prevent confusion due to time zone crossing. See the UCA3599 flight status page for this flight to view local times or setup timezone preferences in your user account.

Time Position Orientation Groundspeed Altitude Reporting Facility
EDT Latitude Longitude Course Direction KTS MPH feet Rate Location/Type
Sat 06:22:33 AM 42.1381 -75.9781 209° Southwest 177 204 4,000  Level New York Center
Sat 06:23:33 AM 42.1028 -76.0228 223° Southwest 182 209 5,300 1,400 Climbing New York Center
Sat 06:24:33 AM 42.0636 -76.0644 218° Southwest 189 217 6,800 1,350 Climbing New York Center
Sat 06:25:33 AM 42.0178 -76.1083 215° Southwest 189 217 8,000 1,350 Climbing New York Center
Sat 06:26:00 AM 41.9106 -76.1213 209° Southwest  Level Estimated
Sat 06:26:33 AM 41.9828 -76.1472 220° Southwest 189 217 9,500  Level New York Center
Sat 06:27:33 AM 41.9436 -76.1831 214° Southwest 184 212 11,000 1,400 Climbing New York Center
Sat 06:28:33 AM 41.8989 -76.2072 202° Southwest 171 197 12,300 1,150 Climbing New York Center
Sat 06:29:33 AM 41.8539 -76.2342 204° Southwest 171 197 13,300 950 Climbing New York Center
Sat 06:30:33 AM 41.8108 -76.2642 207° Southwest 176 203 14,200 950 Climbing New York Center
Sat 06:31:33 AM 41.7681 -76.2883 203° Southwest 181 208 15,200 900 Climbing New York Center
Sat 06:32:33 AM 41.7231 -76.3153 204° Southwest 181 208 16,000 400 Climbing New York Center
Sat 06:33:33 AM 41.6653 -76.3494 204° Southwest 186 214 16,000  Level New York Center
Sat 06:34:33 AM 41.6136 -76.3839 206° Southwest 203 234 16,000  Level New York Center
Sat 06:35:33 AM 41.5622 -76.4128 203° Southwest 214 246 16,000  Level New York Center
Sat 06:36:33 AM 41.5086 -76.4472 206° Southwest 220 253 16,000  Level New York Center
Sat 06:37:33 AM 41.4486 -76.4808 203° Southwest 220 253 16,000  Level New York Center
Sat 06:38:33 AM 41.3950 -76.5150 206° Southwest 220 253 16,000  Level New York Center
Sat 06:39:33 AM 41.3411 -76.5492 205° Southwest 220 253 16,000  Level New York Center
Sat 06:40:33 AM 41.2917 -76.5808 206° Southwest 220 253 16,000  Level New York Center
Sat 06:41:33 AM 41.2358 -76.6147 205° Southwest 220 253 16,000  Level New York Center
Sat 06:42:33 AM 41.1758 -76.6481 203° Southwest 220 253 16,000  Level New York Center
Sat 06:43:33 AM 41.1264 -76.6822 207° Southwest 220 253 16,000  Level New York Center
Sat 06:44:33 AM 41.0725 -76.7161 205° Southwest 220 253 16,000  Level New York Center
Sat 06:45:33 AM 41.0189 -76.7472 204° Southwest 220 253 16,000  Level New York Center
Sat 06:46:33 AM 40.9631 -76.7808 204° Southwest 220 253 16,000  Level New York Center
Sat 06:48:33 AM 40.8489 -76.8503 205° Southwest 220 253 16,000  Level New York Center
Sat 06:49:33 AM 40.7997 -76.8789 204° Southwest 220 253 16,000  Level New York Center
Sat 06:50:33 AM 40.7358 -76.9006 194° South 220 253 16,000  Level New York Center
Sat 06:51:33 AM 40.6828 -76.9206 196° South 225 259 16,000  Level New York Center
Sat 06:52:33 AM 40.6153 -76.9389 192° South 225 259 16,000  Level New York Center
Sat 06:53:33 AM 40.5600 -76.9558 193° South 225 259 16,000  Level New York Center
Sat 06:54:33 AM 40.4944 -76.9772 194° South 225 259 16,000  Level New York Center
Sat 06:55:33 AM 40.4392 -76.9942 193° South 225 259 16,000 -300 Level New York Center
Sat 06:56:33 AM 40.3717 -77.0125 192° South 232 267 15,400 -800 Descending New York Center
Sat 06:57:33 AM 40.3119 -77.0344 196° South 244 281 14,400 -1,087 Descending New York Center
Sat 07:00:47 AM 40.1000 -77.1000 193° South 237 273 10,800 -1,110 Descending Potomac TRACON
Sat 07:01:47 AM 40.0333 -77.1167 191° South 238 274 9,700 -900 Descending Potomac TRACON
Sat 07:02:47 AM 39.9667 -77.1333 191° South 232 267 9,000 -241 Descending Potomac TRACON
Sat 07:04:41 AM 39.8667 -77.1833 201° Southwest 220 253 9,000 -129 Level Potomac TRACON
Sat 07:05:53 AM 39.7833 -77.2167 197° South 229 264 8,600 -450 Descending Potomac TRACON
Sat 07:06:41 AM 39.7333 -77.2333 194° South 239 275 8,100 -625 Descending Potomac TRACON
Sat 07:07:29 AM 39.6833 -77.2500 194° South 244 281 7,600 -579 Descending Potomac TRACON
Sat 07:08:35 AM 39.6167 -77.2833 201° Southwest 253 291 7,000 -300 Descending Potomac TRACON
Sat 07:09:29 AM 39.5500 -77.3000 191° South 243 280 7,000  Level Potomac TRACON
Sat 07:10:29 AM 39.4833 -77.3333 201° Southwest 238 274 7,000  Level Potomac TRACON
Sat 07:11:23 AM 39.4333 -77.3500 194° South 238 274 7,000 -222 Level Potomac TRACON
Sat 07:12:17 AM 39.3667 -77.3667 191° South 251 289 6,600 -850 Descending Potomac TRACON
Sat 07:13:23 AM 39.2833 -77.3667 180° South 267 307 5,300 -850 Descending Potomac TRACON
Sat 07:14:17 AM 39.2333 -77.3667 180° South 255 293 4,900 -722 Descending Potomac TRACON
Sat 07:15:11 AM 39.1667 -77.3500 169° South 263 303 4,000 -474 Descending Potomac TRACON
Sat 07:16:11 AM 39.0833 -77.3500 180° South 250 288 4,000  Level Potomac TRACON
Sat 07:17:11 AM 39.0167 -77.3500 180° South 252 290 4,000 -50 Level Potomac TRACON
Sat 07:18:11 AM 38.9500 -77.3500 180° South 257 296 3,900 -500 Descending Potomac TRACON
Sat 07:19:11 AM 38.8833 -77.3667 191° South 260 299 3,000 -500 Descending Potomac TRACON
Sat 07:20:11 AM 38.8333 -77.3833 195° South 213 245 2,900 -600 Descending Potomac TRACON
Sat 07:21:11 AM 38.8333 -77.4333 270° West 166 191 1,800 -800 Descending Potomac TRACON
Sat 07:22:11 AM 38.8667 -77.4333 360° North 115 132 1,300 -550 Descending Potomac TRACON
Sat 07:23:11 AM 38.9000 -77.4333 360° North 112 129 700 -600 Descending Potomac TRACON
Sat 07:25:00 AM 38.9333 -77.4500 349° North  Level FlightAware Approximate
Sat 07:32:00 AM 38.9474 -77.4599 349° North  Level Estimated

Login

Don't have an account? Register now (free) for customized features, flight alerts, and more!